Aktuální počasí v Česku a ve světě - METAR

Seznam meteostanic umístěných nejčasteji na letišti v ČR a ve světě

Vyhledat místa podle abecedy:
A B C D E F G H I J K L M N O P Q R S T U V W X Y Z

Filtrovat:

ID stanice:
a/nebo
Název místa (fulltext):
 
Místo (ID)Naposledy načteno 
Doksany - Litoměřice (Doksany) 13.04.2024 18:00 UTC Zobrazit data
Místo: Doksany - Litoměřice
Teplota: 18 °C (pocitová: 17.2 °C)
Vítr: 2 m/s z(e) 190°
Počasí: skoro zataženo
Dohlednost: 50 km
Zákl. oblačnosti: 6/8 6900 m
Vlhkost: 73%
Dukovany (Dukovany) 13.04.2024 18:00 UTC Zobrazit data
Místo: Dukovany
Teplota: 18 °C (pocitová: 17.8 °C)
Vítr: 1 m/s z(e) 350°
Počasí: skoro zataženo
Dohlednost: 30 km
Zákl. oblačnosti: 7/8 6600 m
Vlhkost: 49%
Dakar (GOOY) 13.04.2024 18:00 UTC Zobrazit METAR
GOOY 131800Z 36002KT 8000 NSC 29/17 Q1007
Damascus (OSDI) 13.04.2024 16:00 UTC Zobrazit METAR
OSDI 131600Z 23012KT 9999 FEW030 SCT100 24/05 Q1012
Debrecen (LHDC) 13.04.2024 17:45 UTC Zobrazit METAR
LHDC 131745Z AUTO 00000KT CAVOK 21/08 Q1022 NOSIG
Delhi (VIDP) 13.04.2024 18:00 UTC Zobrazit METAR
VIDP 131800Z 30006KT 3000 HZ SCT030 BKN100 26/14 Q1012 TEMPO 29015G25KT 1500 TSRA
Dhaka (VGZR) Zatím nenačteno  
Diego Garcia (FJDG) 13.04.2024 17:55 UTC Zobrazit METAR
FJDG 131755Z 13009KT 9999 FEW024 FEW050 29/26 A2985 RMK SLP105 8/800 T02890261 10297 20283 403350272 52014
Djibouti (HDAM) 13.04.2024 17:00 UTC Zobrazit METAR
HDAM 131700Z 14005KT CAVOK 30/23 Q1007
Dnipropetrovs'k (UKDD) 12.08.2013 14:00 UTC Zobrazit METAR
UKDD 121400Z CAVOK 33/13 Q1012 08090070 NOSIG
Dodoma (HTDO) 13.04.2024 08:00 UTC Zobrazit METAR
HTDO 130800Z 09014KT 9999 BKN024 24/19 Q1018 NOSIG
Doha (OTBD) 13.04.2024 18:00 UTC Zobrazit METAR
OTBD 131800Z 35006KT CAVOK 27/08 Q1009 NOSIG
Dortmund (EDLW) 13.04.2024 17:50 UTC Zobrazit METAR
EDLW 131750Z 23010KT CAVOK 22/11 Q1019
Dresden (EDDC) 13.04.2024 17:50 UTC Zobrazit METAR
EDDC 131750Z AUTO 22004KT CAVOK 18/10 Q1021 NOSIG
Dublin (EIDW) 13.04.2024 18:00 UTC Zobrazit METAR
EIDW 131800Z 27019G29KT 9999 FEW021 11/02 Q1019 NOSIG
Dubrovnik (LDDU) 13.04.2024 18:00 UTC Zobrazit METAR
LDDU 131800Z 31005KT 290V350 CAVOK 18/15 Q1023 NOSIG
Dushanbe (UTDD) Zatím nenačteno  
Dusseldorf (EDDL) 13.04.2024 17:50 UTC Zobrazit METAR
EDDL 131750Z AUTO 23010KT CAVOK 22/12 Q1019 NOSIG
Dzaoudzi (FMCZ) 13.04.2024 18:00 UTC Zobrazit METAR
FMCZ 131800Z AUTO 23008KT 9999 FEW035 28/24 Q1012 TEMPO 3000 SHRA SCT015TCU
Reklama

Krásné fotografie přírody - (nejen) tapety na pozadí do počítače

Článek
Fotogalerie jarních květin
13. dubna 2023 12:19
Článek
Fotografie slunečné zimní krajiny
7. prosince 2022 17:13
Článek
Obrázky na téma slunečno
25. srpna 2022 05:03
Článek
Obrázky květin
5. června 2022 12:12

Vyhledat
Přidejte si Počasí Slunečno na svůj Facebook
Facebook Počasí Slunečno.cz
Aplikace pro Windows 10/11 nebo chytré mobilní telefony
Stáhněte si aplikaci Slunečno.cz na Microsoft Store Stáhněte si aplikaci Slunečno.cz na Google Play